Time;durP1;ratioP1;P1;durP2;ratioP2;P2;SDS_P1;SDS_P2;PMS_P1;PMS_P2;Temp;Humidity;BMP_temperature;BMP_pressure;BME280_temperature;BME280_humidity;BME280_pressure;Samples;Min_cycle;Max_cycle;Signal;HPM_P1;HPM_P2
2022/09/26 00:01:42;;;;;;;4.43;1.50;;;10.80;99.90;;;;;;5073821;28;20052;-25
2022/09/26 00:04:18;;;;;;;4.95;1.80;;;10.80;99.90;;;;;;5073770;28;20399;-25
2022/09/26 00:06:44;;;;;;;5.25;1.73;;;10.70;99.90;;;;;;5074593;28;20120;-24
2022/09/26 00:09:10;;;;;;;5.07;2.13;;;10.80;99.90;;;;;;5073751;28;20040;-24
2022/09/26 00:11:36;;;;;;;6.78;2.00;;;10.80;99.90;;;;;;5073670;28;20482;-24
2022/09/26 00:14:06;;;;;;;7.50;2.35;;;10.80;99.90;;;;;;5074304;28;20051;-24
2022/09/26 00:16:32;;;;;;;5.38;1.67;;;10.90;99.90;;;;;;5073554;28;20115;-25
2022/09/26 00:18:58;;;;;;;4.65;1.83;;;10.70;99.90;;;;;;5073632;28;20567;-25
2022/09/26 00:21:26;;;;;;;8.18;2.13;;;10.80;99.90;;;;;;5073609;28;20478;-25
2022/09/26 00:23:53;;;;;;;3.67;2.10;;;10.90;99.90;;;;;;5073449;28;20060;-25
2022/09/26 00:26:20;;;;;;;4.43;2.05;;;10.80;99.90;;;;;;5073531;28;20074;-25
2022/09/26 00:28:46;;;;;;;8.07;2.20;;;10.80;99.90;;;;;;5074070;28;20050;-25
2022/09/26 00:31:18;;;;;;;5.90;2.05;;;10.80;99.90;;;;;;5073790;28;20041;-25
2022/09/26 00:33:44;;;;;;;2.70;1.70;;;10.80;99.90;;;;;;5073502;28;20048;-25
2022/09/26 00:36:10;;;;;;;4.00;2.08;;;10.80;99.90;;;;;;5072230;28;20493;-25
2022/09/26 00:38:36;;;;;;;8.93;2.60;;;10.90;99.90;;;;;;5072182;28;20044;-25
2022/09/26 00:41:03;;;;;;;8.55;2.80;;;10.80;99.90;;;;;;5073074;28;20044;-25
2022/09/26 00:43:35;;;;;;;6.38;2.05;;;10.80;99.90;;;;;;5073371;28;20056;-25
2022/09/26 00:46:21;;;;;;;4.75;2.15;;;10.80;99.90;;;;;;5073319;28;20094;-25
2022/09/26 00:49:14;;;;;;;6.07;2.17;;;10.80;99.90;;;;;;5069159;28;20128;-25
2022/09/26 00:51:45;;;;;;;4.85;2.10;;;10.80;99.90;;;;;;5071631;28;20059;-25
2022/09/26 00:54:14;;;;;;;5.40;2.05;;;10.80;99.90;;;;;;5077678;28;20048;-25
2022/09/26 00:56:42;;;;;;;8.15;2.00;;;10.90;99.90;;;;;;5076858;28;20049;-25
2022/09/26 00:59:28;;;;;;;6.53;2.25;;;10.90;99.90;;;;;;5077386;28;20044;-25
2022/09/26 01:01:56;;;;;;;4.78;1.67;;;10.90;99.90;;;;;;5077104;28;20486;-25
2022/09/26 01:04:24;;;;;;;6.63;2.30;;;10.90;99.90;;;;;;5077033;28;20052;-25
2022/09/26 01:06:51;;;;;;;6.68;1.45;;;10.90;99.90;;;;;;5076976;28;20036;-25
2022/09/26 01:09:18;;;;;;;8.68;2.13;;;11.00;99.90;;;;;;5076918;28;20068;-25
2022/09/26 01:11:44;;;;;;;6.80;1.50;;;10.90;99.90;;;;;;5077461;28;20057;-25
2022/09/26 01:14:11;;;;;;;12.00;1.95;;;10.90;99.90;;;;;;5076810;28;20053;-25
2022/09/26 01:16:38;;;;;;;6.07;1.73;;;11.00;99.90;;;;;;5076722;28;20044;-25
2022/09/26 01:19:38;;;;;;;5.03;1.80;;;11.10;99.90;;;;;;5075563;28;20082;-25
2022/09/26 01:22:44;;;;;;;7.32;1.45;;;11.10;99.90;;;;;;5077556;28;20391;-25
2022/09/26 01:25:27;;;;;;;5.65;1.80;;;11.00;99.90;;;;;;5062425;28;20378;-25
2022/09/26 01:28:13;;;;;;;6.20;1.70;;;11.10;99.90;;;;;;5076213;28;20088;-25
2022/09/26 01:31:05;;;;;;;3.45;1.80;;;11.10;99.90;;;;;;5076795;28;20092;-25
2022/09/26 01:33:56;;;;;;;4.03;1.75;;;11.00;99.90;;;;;;5075231;28;20106;-25
2022/09/26 01:37:02;;;;;;;4.93;1.48;;;11.00;99.90;;;;;;5076412;28;20144;-25
2022/09/26 01:39:45;;;;;;;5.78;1.23;;;11.00;99.90;;;;;;5076427;28;20105;-25
2022/09/26 01:42:25;;;;;;;8.20;1.50;;;11.00;99.90;;;;;;5076690;28;20509;-25
2022/09/26 01:44:58;;;;;;;7.82;2.42;;;11.10;99.90;;;;;;5076297;28;20049;-25
2022/09/26 01:47:49;;;;;;;7.82;1.80;;;11.00;99.90;;;;;;5077139;28;20072;-25
2022/09/26 01:50:33;;;;;;;5.72;1.60;;;11.10;99.90;;;;;;5075363;28;20045;-25
2022/09/26 01:53:05;;;;;;;3.67;1.42;;;11.00;99.90;;;;;;5074958;28;20055;-25
2022/09/26 01:55:40;;;;;;;5.55;1.50;;;11.00;99.90;;;;;;5075806;28;20444;-25
2022/09/26 01:58:21;;;;;;;3.85;1.58;;;11.00;99.90;;;;;;5076596;28;20059;-25
2022/09/26 02:00:49;;;;;;;7.47;2.08;;;10.80;99.90;;;;;;5076317;28;20508;-24
2022/09/26 02:03:22;;;;;;;6.65;1.50;;;10.70;99.90;;;;;;5074784;28;20505;-23
2022/09/26 02:05:59;;;;;;;;;;;10.70;99.90;;;;;;5076950;28;20052;-22
2022/09/26 02:08:42;;;;;;;7.00;1.63;;;10.80;99.90;;;;;;5076441;28;19927;-22
2022/09/26 02:11:19;;;;;;;5.55;2.53;;;10.70;99.90;;;;;;5075934;28;20102;-31
2022/09/26 02:13:54;;;;;;;9.68;2.22;;;10.50;99.90;;;;;;5076655;28;20454;-22
2022/09/26 02:16:48;;;;;;;6.20;2.50;;;10.60;99.90;;;;;;5074605;28;20475;-21
2022/09/26 02:19:35;;;;;;;7.95;1.70;;;10.50;99.90;;;;;;5075556;28;20154;-21
2022/09/26 02:22:01;;;;;;;8.48;2.20;;;10.50;99.90;;;;;;5075648;28;20131;-21
2022/09/26 02:24:27;;;;;;;7.30;2.33;;;10.30;99.90;;;;;;5076085;28;20051;-22
2022/09/26 02:26:53;;;;;;;5.78;1.83;;;10.40;99.90;;;;;;5075367;28;20049;-23
2022/09/26 02:29:20;;;;;;;8.35;2.30;;;10.30;99.90;;;;;;5075445;28;20060;-22
2022/09/26 02:31:55;;;;;;;10.75;2.65;;;10.40;99.90;;;;;;5075413;28;20053;-23
2022/09/26 02:34:23;;;;;;;6.63;2.10;;;10.30;99.90;;;;;;5075967;28;20111;-23
2022/09/26 02:36:48;;;;;;;8.40;2.42;;;10.40;99.90;;;;;;5075224;28;20084;-23
2022/09/26 02:39:14;;;;;;;5.95;3.20;;;10.10;99.90;;;;;;5075547;28;20087;-23
2022/09/26 02:42:01;;;;;;;8.55;2.80;;;10.30;99.90;;;;;;5075234;28;20048;-24
2022/09/26 02:44:52;;;;;;;10.30;2.88;;;10.30;99.90;;;;;;5074006;28;20409;-24
2022/09/26 02:47:50;;;;;;;5.93;2.70;;;10.40;99.90;;;;;;5075373;28;20072;-25
2022/09/26 02:50:24;;;;;;;7.40;3.10;;;10.40;99.90;;;;;;5074565;28;20576;-25
2022/09/26 02:52:54;;;;;;;10.40;3.58;;;10.30;99.90;;;;;;5075012;28;20056;-25
2022/09/26 02:55:31;;;;;;;10.75;3.22;;;10.10;99.90;;;;;;5074879;28;20041;-25
2022/09/26 02:58:29;;;;;;;4.53;2.60;;;10.40;99.90;;;;;;5075324;28;20437;-25
2022/09/26 03:01:25;;;;;;;10.45;3.45;;;10.30;99.90;;;;;;5074876;28;20056;-25
2022/09/26 03:04:05;;;;;;;9.30;3.55;;;10.20;99.90;;;;;;5075321;28;20036;-25
2022/09/26 03:06:36;;;;;;;7.90;4.00;;;10.50;99.90;;;;;;5075325;28;20048;-25
2022/09/26 03:09:03;;;;;;;11.23;3.20;;;10.30;99.90;;;;;;5074686;28;20052;-25
2022/09/26 03:11:31;;;;;;;11.27;3.70;;;10.50;99.90;;;;;;5074582;28;20055;-25
2022/09/26 03:13:57;;;;;;;11.00;3.97;;;10.30;99.90;;;;;;5073720;28;20055;-25
2022/09/26 03:16:27;;;;;;;9.35;3.78;;;10.50;99.90;;;;;;5073935;28;20044;-25
2022/09/26 03:19:22;;;;;;;8.05;3.47;;;10.20;99.90;;;;;;5074709;28;20490;-24
2022/09/26 03:21:47;;;;;;;7.35;3.72;;;10.20;99.90;;;;;;5067875;28;20139;-25
2022/09/26 03:24:13;;;;;;;9.90;4.03;;;10.60;99.90;;;;;;5074644;28;20124;-25
2022/09/26 03:26:40;;;;;;;7.88;4.15;;;10.60;99.90;;;;;;5074330;28;20036;-25
2022/09/26 03:29:06;;;;;;;10.55;5.18;;;10.30;99.90;;;;;;5074276;28;20045;-26
2022/09/26 03:31:32;;;;;;;8.77;4.53;;;10.20;99.90;;;;;;5074215;28;20470;-26
2022/09/26 03:33:58;;;;;;;9.48;4.22;;;10.20;99.90;;;;;;5039760;28;20048;-26
2022/09/26 03:36:24;;;;;;;9.40;5.10;;;10.40;99.90;;;;;;5073761;28;20478;-25
2022/09/26 03:38:50;;;;;;;10.95;4.70;;;10.50;99.90;;;;;;5074655;28;20040;-25
2022/09/26 03:41:15;;;;;;;10.13;4.32;;;10.30;99.90;;;;;;5074076;28;20087;-25
2022/09/26 03:43:42;;;;;;;8.45;5.13;;;10.20;99.90;;;;;;5072878;28;20048;-25
2022/09/26 03:46:10;;;;;;;9.05;5.18;;;10.40;99.90;;;;;;5072760;28;20403;-26
2022/09/26 03:48:36;;;;;;;9.98;5.55;;;10.60;99.90;;;;;;5073826;28;20105;-26
2022/09/26 03:51:07;;;;;;;8.68;4.75;;;10.60;99.90;;;;;;5074114;28;20044;-26
2022/09/26 03:53:37;;;;;;;8.15;4.45;;;10.20;99.90;;;;;;5074284;28;20048;-26
2022/09/26 03:56:08;;;;;;;8.18;5.00;;;10.70;99.90;;;;;;5073850;28;20041;-25
2022/09/26 03:58:35;;;;;;;7.88;4.18;;;10.20;99.90;;;;;;5073742;28;20048;-25
2022/09/26 04:01:08;;;;;;;11.55;5.30;;;10.60;99.90;;;;;;5073855;28;20072;-25
2022/09/26 04:03:36;;;;;;;8.35;4.60;;;10.70;99.90;;;;;;5073506;28;20490;-26
2022/09/26 04:06:03;;;;;;;6.15;4.38;;;10.30;99.90;;;;;;5073817;28;20047;-26
2022/09/26 04:08:30;;;;;;;7.75;5.00;;;10.40;99.90;;;;;;5074562;28;20048;-25
2022/09/26 04:11:03;;;;;;;11.13;5.35;;;10.60;99.90;;;;;;5074259;28;20174;-25
2022/09/26 04:13:30;;;;;;;9.15;5.13;;;10.20;99.90;;;;;;5074520;28;20048;-26
2022/09/26 04:15:57;;;;;;;10.98;5.57;;;10.60;99.90;;;;;;5073873;28;20044;-26
2022/09/26 04:18:22;;;;;;;9.05;4.90;;;10.70;99.90;;;;;;5073608;28;20186;-25
2022/09/26 04:20:48;;;;;;;11.23;5.40;;;10.70;99.90;;;;;;5072455;28;20131;-25
2022/09/26 04:23:14;;;;;;;12.98;5.45;;;10.10;99.90;;;;;;5074191;28;20459;-25
2022/09/26 04:25:39;;;;;;;10.60;5.22;;;10.30;99.90;;;;;;5056224;28;20044;-25
2022/09/26 04:28:05;;;;;;;10.85;5.78;;;10.20;99.90;;;;;;5076244;28;20470;-25
2022/09/26 04:30:31;;;;;;;6.70;5.28;;;10.60;99.90;;;;;;5077676;28;20044;-25
2022/09/26 04:32:56;;;;;;;7.93;4.93;;;10.50;99.90;;;;;;5077149;28;20144;-25
2022/09/26 04:35:24;;;;;;;8.45;4.60;;;10.30;99.90;;;;;;5078222;28;20049;-25
2022/09/26 04:37:50;;;;;;;8.45;5.03;;;10.30;99.90;;;;;;5077485;28;20055;-26
2022/09/26 04:40:16;;;;;;;7.43;4.70;;;10.80;99.90;;;;;;5077535;28;20127;-26
2022/09/26 04:42:41;;;;;;;6.13;3.58;;;10.30;99.90;;;;;;5077493;28;20090;-26
2022/09/26 04:45:07;;;;;;;7.85;4.25;;;10.20;99.90;;;;;;5077724;28;20173;-26
2022/09/26 04:47:33;;;;;;;10.05;4.68;;;10.20;99.90;;;;;;5076190;28;20048;-25
2022/09/26 04:49:59;;;;;;;10.35;4.63;;;10.40;99.90;;;;;;5077877;28;20075;-25
2022/09/26 04:52:25;;;;;;;11.60;5.50;;;10.50;99.90;;;;;;5075735;28;20052;-25
2022/09/26 04:54:51;;;;;;;9.45;4.72;;;10.60;99.90;;;;;;5077782;28;20052;-25
2022/09/26 04:57:17;;;;;;;9.70;4.97;;;10.20;99.90;;;;;;5077445;28;20059;-26
2022/09/26 04:59:42;;;;;;;5.38;4.43;;;10.70;99.90;;;;;;5077140;28;20043;-26
2022/09/26 05:02:08;;;;;;;7.47;4.85;;;10.70;99.90;;;;;;5077576;28;20083;-26
2022/09/26 05:04:34;;;;;;;7.20;5.28;;;10.80;99.90;;;;;;5077005;28;20501;-26
2022/09/26 05:07:00;;;;;;;7.43;4.90;;;10.20;99.90;;;;;;5076551;28;20494;-26
2022/09/26 05:09:26;;;;;;;10.20;5.68;;;10.70;99.90;;;;;;5076586;28;20094;-27
2022/09/26 05:11:52;;;;;;;12.48;5.35;;;10.30;99.90;;;;;;5076936;28;20090;-27
2022/09/26 05:14:18;;;;;;;8.88;5.60;;;10.10;99.90;;;;;;5075645;28;20063;-28
2022/09/26 05:16:44;;;;;;;8.90;4.20;;;10.10;99.90;;;;;;5059842;28;20055;-26
2022/09/26 05:19:09;;;;;;;11.13;6.15;;;10.60;99.90;;;;;;5059695;28;20128;-28
2022/09/26 05:21:35;;;;;;;14.48;7.45;;;10.00;99.90;;;;;;5075741;28;20052;-28
2022/09/26 05:26:48;;;;;;;11.95;7.63;;;10.60;99.90;;;;;;5076662;28;20040;-27
2022/09/26 05:29:14;;;;;;;9.68;6.95;;;10.60;99.90;;;;;;5076577;28;20040;-28
2022/09/26 05:31:42;;;;;;;10.95;8.73;;;10.50;99.90;;;;;;5076814;28;20045;-28
2022/09/26 05:34:12;;;;;;;11.23;8.20;;;10.40;99.90;;;;;;5075254;28;20056;-28
2022/09/26 05:36:41;;;;;;;12.73;8.40;;;10.60;99.90;;;;;;5077281;28;20049;-30
2022/09/26 05:40:55;;;;;;;11.70;7.85;;;9.90;99.90;;;;;;5076543;28;20049;-31
2022/09/26 05:41:53;;;;;;;10.95;7.97;;;9.90;99.90;;;;;;5076027;28;20088;-31
2022/09/26 05:44:19;;;;;;;11.30;7.22;;;10.40;99.90;;;;;;5076333;28;20084;-31
2022/09/26 05:46:46;;;;;;;18.23;7.93;;;9.80;99.90;;;;;;5076354;28;20080;-30
2022/09/26 05:49:13;;;;;;;11.20;7.85;;;10.60;99.90;;;;;;5058852;28;20048;-31
2022/09/26 05:51:40;;;;;;;10.93;7.47;;;9.80;99.90;;;;;;5076079;28;20060;-32
2022/09/26 05:54:06;;;;;;;11.13;7.28;;;9.80;99.90;;;;;;5076104;28;20045;-32
2022/09/26 05:56:32;;;;;;;14.55;9.13;;;10.20;99.90;;;;;;5076207;28;20390;-32
2022/09/26 05:58:58;;;;;;;10.43;7.55;;;9.90;99.90;;;;;;5076057;28;20070;-32
2022/09/26 06:01:23;;;;;;;12.35;7.60;;;9.70;99.90;;;;;;5075062;28;20474;-32
2022/09/26 06:03:49;;;;;;;12.73;7.57;;;9.70;99.90;;;;;;5075907;28;20126;-33
2022/09/26 06:06:19;;;;;;;9.68;7.18;;;10.50;99.90;;;;;;5057964;28;20548;-31
2022/09/26 06:08:45;;;;;;;9.20;6.68;;;9.70;99.90;;;;;;5074728;28;20132;-31
2022/09/26 06:11:16;;;;;;;9.52;6.22;;;10.40;99.90;;;;;;5058221;28;20040;-32
2022/09/26 06:13:45;;;;;;;13.80;7.63;;;10.40;99.90;;;;;;5075695;28;20095;-31
2022/09/26 06:16:19;;;;;;;13.18;7.03;;;10.40;99.90;;;;;;5075663;28;20048;-32
2022/09/26 06:18:46;;;;;;;12.63;7.88;;;9.70;99.90;;;;;;5074435;28;20041;-33
2022/09/26 06:21:15;;;;;;;10.77;6.80;;;10.30;99.90;;;;;;5075579;28;20052;-31
2022/09/26 06:23:41;;;;;;;14.65;7.78;;;10.30;99.90;;;;;;5074602;28;20052;-33
2022/09/26 06:26:08;;;;;;;14.82;7.80;;;10.50;99.90;;;;;;5075566;28;20044;-31
2022/09/26 06:28:35;;;;;;;15.32;8.13;;;10.40;99.90;;;;;;5075372;28;20044;-31
2022/09/26 06:31:09;;;;;;;10.63;6.28;;;10.10;99.90;;;;;;5075475;28;20117;-31
2022/09/26 06:33:35;;;;;;;9.30;6.28;;;10.10;99.90;;;;;;5075111;28;20064;-31
2022/09/26 06:36:02;;;;;;;9.85;5.90;;;9.40;99.90;;;;;;5074069;28;20135;-34
2022/09/26 06:38:28;;;;;;;9.55;5.82;;;10.20;99.90;;;;;;5075872;28;20040;-35
2022/09/26 06:40:54;;;;;;;12.40;6.65;;;10.30;99.90;;;;;;5075227;28;20055;-34
2022/09/26 06:43:20;;;;;;;14.73;7.65;;;9.40;99.90;;;;;;5075202;28;20123;-34
2022/09/26 06:45:47;;;;;;;7.15;5.22;;;10.10;99.90;;;;;;5074249;28;20047;-35
2022/09/26 06:48:17;;;;;;;12.40;6.57;;;9.40;99.90;;;;;;5075440;28;20055;-33
2022/09/26 06:50:43;;;;;;;8.95;5.40;;;10.20;99.90;;;;;;5074072;28;20406;-33
2022/09/26 06:53:09;;;;;;;15.73;6.95;;;9.30;99.90;;;;;;5074895;28;20045;-32
2022/09/26 06:55:35;;;;;;;14.10;7.38;;;9.60;99.90;;;;;;5074964;28;20044;-32
2022/09/26 06:58:00;;;;;;;9.20;5.40;;;10.20;99.90;;;;;;5073599;28;20544;-33
2022/09/26 07:00:28;;;;;;;12.70;5.78;;;9.30;99.90;;;;;;5074826;28;20048;-33
2022/09/26 07:02:54;;;;;;;10.45;7.05;;;10.20;99.90;;;;;;5073476;28;20048;-32
2022/09/26 07:05:22;;;;;;;11.32;6.68;;;10.30;99.90;;;;;;5057273;28;20468;-33
2022/09/26 07:07:48;;;;;;;12.23;6.22;;;10.10;99.90;;;;;;5074704;28;20115;-33
2022/09/26 07:10:19;;;;;;;10.13;6.78;;;10.30;99.90;;;;;;5074660;28;20060;-34
2022/09/26 07:12:46;;;;;;;10.18;5.72;;;10.30;99.90;;;;;;5074673;28;20044;-32
2022/09/26 07:15:19;;;;;;;11.75;6.15;;;9.60;99.90;;;;;;5074534;28;20060;-33
2022/09/26 07:17:47;;;;;;;8.30;5.68;;;10.00;99.90;;;;;;5073346;28;20083;-33
2022/09/26 07:20:18;;;;;;;12.80;6.20;;;9.40;99.90;;;;;;5074227;28;20475;-33
2022/09/26 07:22:45;;;;;;;12.50;5.03;;;9.30;99.90;;;;;;5074482;28;20090;-33
2022/09/26 07:25:12;;;;;;;7.70;4.43;;;10.20;99.90;;;;;;5074350;28;20056;-32
2022/09/26 07:27:39;;;;;;;10.93;6.57;;;9.30;99.90;;;;;;5074876;28;20101;-33
2022/09/26 07:30:06;;;;;;;13.05;5.40;;;9.30;99.90;;;;;;5056683;28;20118;-33
2022/09/26 07:32:32;;;;;;;8.25;4.68;;;9.40;99.90;;;;;;5073051;28;20044;-32
2022/09/26 07:35:02;;;;;;;12.90;5.40;;;10.20;99.90;;;;;;5073019;28;20106;-34
2022/09/26 07:37:30;;;;;;;7.00;4.68;;;9.40;99.90;;;;;;5072708;28;20202;-33
2022/09/26 07:39:55;;;;;;;10.00;5.07;;;10.30;99.90;;;;;;5074147;28;20126;-35
2022/09/26 07:42:21;;;;;;;10.05;4.50;;;10.40;99.90;;;;;;5074046;28;20059;-34
2022/09/26 07:44:47;;;;;;;8.55;5.40;;;10.00;99.90;;;;;;5074526;28;20532;-33
2022/09/26 07:50:13;;;;;;;9.05;4.88;;;9.60;99.90;;;;;;5074214;28;20466;-34
2022/09/26 07:52:43;;;;;;;10.93;5.50;;;10.40;99.90;;;;;;5074388;28;20093;-34
2022/09/26 07:55:12;;;;;;;12.13;5.35;;;10.10;99.90;;;;;;5073849;28;20057;-34
2022/09/26 07:57:38;;;;;;;9.52;5.40;;;9.90;99.90;;;;;;5073755;28;20501;-34
2022/09/26 08:00:07;;;;;;;7.57;4.75;;;10.30;99.90;;;;;;5073684;28;20048;-33
2022/09/26 08:02:34;;;;;;;9.93;4.35;;;9.90;99.90;;;;;;5073691;28;20048;-35
2022/09/26 08:05:03;;;;;;;8.05;4.72;;;10.30;99.90;;;;;;5073515;28;20528;-35
2022/09/26 08:07:31;;;;;;;11.77;4.50;;;10.00;99.90;;;;;;5072798;28;20490;-34
2022/09/26 08:09:57;;;;;;;8.27;4.72;;;10.20;99.90;;;;;;5072649;28;20048;-34
2022/09/26 08:12:24;;;;;;;6.90;3.88;;;10.40;99.90;;;;;;5073657;28;20049;-34
2022/09/26 08:14:51;;;;;;;12.35;4.90;;;10.60;99.90;;;;;;5055743;28;20048;-35
2022/09/26 08:17:18;;;;;;;9.63;4.35;;;10.30;99.90;;;;;;5073500;28;20095;-35
2022/09/26 08:19:44;;;;;;;9.88;4.28;;;10.60;99.90;;;;;;5056720;28;20131;-35
2022/09/26 08:22:11;;;;;;;7.63;3.63;;;10.50;99.90;;;;;;5073594;28;20170;-36
2022/09/26 08:24:37;;;;;;;6.20;3.40;;;10.60;99.90;;;;;;5073599;28;20056;-34
2022/09/26 08:27:04;;;;;;;5.97;3.60;;;10.50;99.90;;;;;;5072465;28;20053;-33
2022/09/26 08:29:31;;;;;;;10.85;4.82;;;10.50;99.90;;;;;;5072281;28;20055;-34
2022/09/26 08:31:57;;;;;;;7.38;3.58;;;10.50;99.90;;;;;;5073332;28;20051;-33
2022/09/26 08:34:23;;;;;;;6.93;3.78;;;10.50;99.90;;;;;;5074249;28;20061;-34
2022/09/26 08:36:53;;;;;;;4.90;3.13;;;10.50;99.90;;;;;;5073918;28;20047;-36
2022/09/26 08:39:23;;;;;;;5.82;2.70;;;10.70;99.90;;;;;;5073406;28;20139;-33
2022/09/26 08:41:58;;;;;;;11.00;3.05;;;10.70;99.90;;;;;;5072464;28;20067;-33
2022/09/26 08:44:32;;;;;;;7.18;3.10;;;10.70;99.90;;;;;;5073426;28;20178;-34
2022/09/26 08:47:04;;;;;;;7.35;3.28;;;10.70;99.90;;;;;;5073088;28;20131;-33
2022/09/26 08:49:51;;;;;;;7.35;3.08;;;10.80;99.90;;;;;;5073883;28;20044;-33
2022/09/26 08:52:36;;;;;;;6.75;2.95;;;10.80;99.90;;;;;;5073298;28;20056;-33
2022/09/26 08:55:16;;;;;;;5.40;3.78;;;11.00;99.90;;;;;;5073338;28;20084;-33
2022/09/26 08:57:57;;;;;;;4.95;3.60;;;11.00;99.90;;;;;;5072236;28;20510;-33
2022/09/26 09:00:25;;;;;;;7.43;2.95;;;11.10;99.90;;;;;;5073809;28;20040;-33
2022/09/26 09:03:06;;;;;;;8.65;3.08;;;11.10;99.90;;;;;;5073184;28;20510;-32
2022/09/26 09:05:39;;;;;;;6.35;2.90;;;11.20;99.90;;;;;;5056107;28;20052;-32
2022/09/26 09:08:21;;;;;;;6.97;3.42;;;11.10;99.90;;;;;;5073748;28;20379;-33
2022/09/26 09:10:50;;;;;;;7.20;2.85;;;11.20;99.90;;;;;;5073745;28;20097;-34
2022/09/26 09:13:34;;;;;;;7.38;3.20;;;11.30;99.90;;;;;;5073486;28;20048;-32
2022/09/26 09:16:58;;;;;;;5.20;2.70;;;11.20;99.90;;;;;;5076793;28;20482;-30
2022/09/26 09:19:42;;;;;;;5.75;3.13;;;11.30;99.90;;;;;;5065145;28;20102;-32
2022/09/26 09:22:32;;;;;;;6.65;3.38;;;11.30;99.90;;;;;;5076888;28;20056;-31
2022/09/26 09:25:08;;;;;;;6.60;2.35;;;11.30;99.90;;;;;;5075520;28;20045;-30
2022/09/26 09:28:03;;;;;;;4.78;2.45;;;11.30;99.90;;;;;;5076705;28;20474;-30
2022/09/26 09:30:37;;;;;;;5.60;2.63;;;11.30;99.90;;;;;;5067892;28;20514;-31
2022/09/26 09:33:24;;;;;;;4.82;2.55;;;11.40;99.90;;;;;;5075398;28;20052;-30
2022/09/26 09:35:58;;;;;;;6.38;3.35;;;11.30;99.90;;;;;;5076482;28;20044;-30
2022/09/26 09:38:30;;;;;;;6.30;3.22;;;11.30;99.90;;;;;;5075845;28;20044;-30
2022/09/26 09:41:01;;;;;;;6.45;2.90;;;11.30;99.90;;;;;;5076401;28;20474;-30
2022/09/26 09:43:47;;;;;;;6.00;2.55;;;11.40;99.90;;;;;;5059062;28;20134;-30
2022/09/26 09:46:28;;;;;;;6.35;2.78;;;11.40;99.90;;;;;;5076325;28;20041;-31
2022/09/26 09:49:08;;;;;;;9.15;3.42;;;11.50;99.90;;;;;;5075331;28;20529;-30
2022/09/26 09:52:08;;;;;;;7.28;3.90;;;11.10;99.90;;;;;;5076146;28;20051;-30
2022/09/26 09:54:58;;;;;;;8.05;4.55;;;11.00;99.90;;;;;;5076730;28;20045;-30
2022/09/26 09:57:55;;;;;;;7.65;3.80;;;11.00;99.90;;;;;;5076088;28;20091;-30
2022/09/26 10:00:23;;;;;;;10.73;5.05;;;11.20;99.90;;;;;;5075077;28;20048;-31
2022/09/26 10:03:14;;;;;;;8.50;4.85;;;10.80;99.90;;;;;;5076005;28;20052;-31
2022/09/26 10:05:45;;;;;;;10.15;4.70;;;11.30;99.90;;;;;;5075972;28;20055;-31
2022/09/26 10:08:17;;;;;;;11.40;4.88;;;10.80;99.90;;;;;;5074923;28;20486;-32
2022/09/26 10:11:11;;;;;;;10.00;4.68;;;10.80;99.90;;;;;;5075873;28;20439;-31
2022/09/26 10:13:43;;;;;;;9.60;5.20;;;10.90;99.90;;;;;;5074688;28;20044;-31
2022/09/26 10:16:14;;;;;;;10.00;5.35;;;11.20;99.90;;;;;;5075701;28;20053;-31
2022/09/26 10:18:53;;;;;;;10.27;4.38;;;11.30;99.90;;;;;;5075765;28;20060;-32
2022/09/26 10:21:19;;;;;;;10.85;4.80;;;11.30;99.90;;;;;;5074615;28;20049;-31
2022/09/26 10:23:48;;;;;;;14.32;7.20;;;10.60;99.90;;;;;;5075568;28;20133;-32
2022/09/26 10:26:15;;;;;;;12.05;6.43;;;10.70;99.90;;;;;;5074192;28;20182;-32
2022/09/26 10:28:54;;;;;;;9.55;7.22;;;10.90;99.90;;;;;;5076075;28;20080;-33
2022/09/26 10:31:28;;;;;;;13.63;7.60;;;10.70;99.90;;;;;;5074829;28;20056;-33
2022/09/26 10:34:01;;;;;;;9.63;7.72;;;10.60;99.90;;;;;;5074043;28;20056;-34
2022/09/26 10:36:35;;;;;;;8.43;6.18;;;11.30;99.90;;;;;;5075346;28;20044;-35
2022/09/26 10:42:23;;;;;;;14.45;7.47;;;10.60;99.90;;;;;;5074570;28;20460;-39
2022/09/26 10:44:49;;;;;;;11.32;6.72;;;11.50;99.90;;;;;;5057916;28;20052;-43
2022/09/26 10:47:25;;;;;;;8.23;6.65;;;10.30;99.90;;;;;;5075135;28;20084;-43
2022/09/26 10:49:57;;;;;;;12.43;6.97;;;11.30;99.90;;;;;;5075388;28;20470;-42
2022/09/26 10:52:38;;;;;;;15.00;9.80;;;10.20;99.90;;;;;;5074901;28;20056;-43
2022/09/26 10:55:39;;;;;;;14.82;8.30;;;10.50;99.90;;;;;;5075510;28;20083;-43
2022/09/26 10:58:08;;;;;;;14.27;8.32;;;10.40;99.90;;;;;;5073397;28;20491;-42
2022/09/26 11:00:36;;;;;;;16.65;9.88;;;10.50;99.90;;;;;;5075627;28;20048;-42
2022/09/26 11:03:15;;;;;;;11.73;8.15;;;11.60;99.90;;;;;;5074721;28;20135;-42
2022/09/26 11:05:55;;;;;;;12.27;8.73;;;10.30;99.90;;;;;;5074404;28;20426;-43
2022/09/26 11:08:26;;;;;;;15.05;8.43;;;10.80;99.90;;;;;;5057409;28;20094;-44
2022/09/26 11:10:53;;;;;;;17.35;10.30;;;10.00;99.90;;;;;;5058060;28;20058;-43
2022/09/26 11:13:21;;;;;;;13.48;9.02;;;10.10;99.90;;;;;;5074907;28;20474;-43
2022/09/26 11:16:07;;;;;;;11.38;8.52;;;10.10;99.90;;;;;;5074539;28;20045;-43
2022/09/26 11:18:57;;;;;;;12.52;8.30;;;10.90;99.90;;;;;;5075126;28;20127;-43
2022/09/26 11:22:02;;;;;;;14.30;9.02;;;11.20;99.90;;;;;;5057763;28;20049;-43
2022/09/26 11:25:11;;;;;;;12.25;8.38;;;10.30;99.90;;;;;;5074329;28;20058;-43
2022/09/26 11:27:51;;;;;;;15.60;8.52;;;10.60;99.90;;;;;;5074441;28;20047;-43
2022/09/26 11:30:19;;;;;;;14.38;10.30;;;10.30;99.90;;;;;;5074235;28;20071;-43
2022/09/26 11:32:51;;;;;;;17.05;10.27;;;10.40;99.90;;;;;;5073995;28;20048;-43
2022/09/26 11:35:42;;;;;;;16.35;12.32;;;11.60;99.90;;;;;;5056546;28;20474;-43
2022/09/26 11:38:15;;;;;;;10.15;7.10;;;10.70;99.90;;;;;;5073834;28;20486;-43
2022/09/26 11:41:06;;;;;;;11.67;9.13;;;11.20;99.90;;;;;;5074437;28;20056;-43
2022/09/26 11:44:04;;;;;;;14.48;9.90;;;10.50;99.90;;;;;;5073193;28;20447;-43
2022/09/26 11:46:45;;;;;;;12.40;8.82;;;11.60;99.90;;;;;;5073116;28;20098;-42
2022/09/26 11:49:25;;;;;;;12.60;9.40;;;11.20;99.90;;;;;;5056984;28;20048;-43
2022/09/26 11:52:24;;;;;;;14.32;10.77;;;10.80;99.90;;;;;;5074443;28;20102;-43
2022/09/26 11:55:15;;;;;;;16.90;10.10;;;11.80;99.90;;;;;;5072768;28;20134;-42
2022/09/26 11:57:59;;;;;;;14.48;10.80;;;11.70;99.90;;;;;;5073802;28;20501;-42
2022/09/26 12:00:35;;;;;;;11.23;10.07;;;11.50;99.90;;;;;;5074669;28;20127;-42
2022/09/26 12:03:42;;;;;;;13.50;9.07;;;10.90;99.90;;;;;;5072495;28;20087;-42
2022/09/26 12:06:30;;;;;;;13.32;8.73;;;11.80;99.90;;;;;;5019301;28;20360;-42
2022/09/26 12:09:27;;;;;;;8.40;7.00;;;12.20;99.90;;;;;;5055591;28;20097;-43
2022/09/26 12:12:24;;;;;;;10.90;7.65;;;11.40;99.90;;;;;;5072633;28;20130;-42
2022/09/26 12:15:01;;;;;;;12.45;8.25;;;11.70;99.90;;;;;;5073535;28;20056;-42
2022/09/26 12:17:38;;;;;;;7.93;6.57;;;12.10;99.90;;;;;;5072337;28;20387;-43
2022/09/26 12:20:23;;;;;;;8.75;7.90;;;11.00;99.90;;;;;;5072871;28;20060;-42
2022/09/26 12:23:18;;;;;;;7.30;6.50;;;11.10;99.90;;;;;;5073589;28;20048;-43
2022/09/26 12:26:13;;;;;;;8.00;7.30;;;12.20;99.90;;;;;;5072206;28;20052;-42
2022/09/26 12:29:13;;;;;;;9.75;8.75;;;12.10;99.90;;;;;;5063585;28;20059;-42
2022/09/26 12:31:49;;;;;;;11.18;8.90;;;11.00;99.90;;;;;;5073579;28;20053;-42
2022/09/26 12:34:54;;;;;;;8.32;7.03;;;12.40;99.90;;;;;;5073791;28;20056;-42
2022/09/26 12:37:32;;;;;;;8.77;6.70;;;11.90;99.90;;;;;;5055283;28;20048;-42
2022/09/26 12:40:27;;;;;;;10.30;6.75;;;11.80;99.90;;;;;;5073494;28;20456;-43
2022/09/26 12:43:24;;;;;;;8.80;6.50;;;11.50;99.90;;;;;;5063281;28;20055;-42
2022/09/26 12:46:21;;;;;;;6.47;5.28;;;11.80;99.90;;;;;;5056667;28;20056;-42
2022/09/26 12:49:11;;;;;;;6.35;5.68;;;12.20;99.90;;;;;;5073557;28;20048;-43
2022/09/26 12:51:43;;;;;;;6.97;4.85;;;11.50;99.90;;;;;;5060128;28;20087;-43
2022/09/26 12:54:33;;;;;;;6.67;5.00;;;11.60;99.90;;;;;;5077303;28;20056;-42
2022/09/26 12:57:05;;;;;;;4.18;3.78;;;11.60;99.90;;;;;;5077123;28;20352;-43
2022/09/26 13:00:09;;;;;;;5.32;4.82;;;12.00;99.90;;;;;;5077468;28;20401;-43
2022/09/26 13:02:56;;;;;;;4.63;4.22;;;11.80;99.90;;;;;;5077119;28;20049;-43
2022/09/26 13:06:01;;;;;;;6.43;5.25;;;11.70;99.90;;;;;;5060284;28;20052;-43
2022/09/26 13:09:00;;;;;;;5.38;4.13;;;12.10;99.90;;;;;;5077891;28;20084;-42
2022/09/26 13:11:47;;;;;;;7.38;5.95;;;12.30;99.90;;;;;;5068632;28;20190;-43
2022/09/26 13:14:26;;;;;;;6.68;5.40;;;12.60;99.90;;;;;;5077468;28;20040;-43
2022/09/26 13:17:09;;;;;;;5.88;3.88;;;12.20;99.90;;;;;;5076589;28;20497;-43
2022/09/26 13:19:34;;;;;;;;;;;12.20;99.90;;;;;;5078144;28;20075;-43
2022/09/26 13:22:21;;;;;;;6.20;4.50;;;12.10;99.90;;;;;;5075551;28;20286;-43
2022/09/26 13:25:17;;;;;;;4.57;4.18;;;12.50;99.90;;;;;;5076761;28;20095;-43
2022/09/26 13:28:03;;;;;;;6.28;4.18;;;12.10;99.90;;;;;;5076704;28;20036;-42
2022/09/26 13:30:45;;;;;;;6.25;4.85;;;11.80;99.90;;;;;;5076671;28;20062;-44